sensor_id;sensor_type;location;lat;lon;timestamp;pressure;altitude;pressure_sealevel;temperature;humidity
30819;BME280;17546;42.674;23.284;2022-08-18T00:02:13;94600.69;;;29.85;34.70
30819;BME280;17546;42.674;23.284;2022-08-18T00:04:40;94601.63;;;29.76;34.88
30819;BME280;17546;42.674;23.284;2022-08-18T00:07:07;94593.63;;;29.61;35.15
30819;BME280;17546;42.674;23.284;2022-08-18T00:09:35;94600.38;;;29.79;35.00
30819;BME280;17546;42.674;23.284;2022-08-18T00:12:04;94595.09;;;29.88;35.01
30819;BME280;17546;42.674;23.284;2022-08-18T00:14:31;94601.50;;;29.74;35.09
30819;BME280;17546;42.674;23.284;2022-08-18T00:16:56;94604.41;;;30.02;34.73
30819;BME280;17546;42.674;23.284;2022-08-18T00:19:22;94601.56;;;30.02;34.93
30819;BME280;17546;42.674;23.284;2022-08-18T00:21:48;94595.63;;;29.84;34.98
30819;BME280;17546;42.674;23.284;2022-08-18T00:24:13;94598.50;;;29.98;34.87
30819;BME280;17546;42.674;23.284;2022-08-18T00:26:39;94606.88;;;30.07;34.83
30819;BME280;17546;42.674;23.284;2022-08-18T00:29:04;94603.69;;;30.15;34.68
30819;BME280;17546;42.674;23.284;2022-08-18T00:31:30;94610.03;;;30.14;34.67
30819;BME280;17546;42.674;23.284;2022-08-18T00:33:56;94602.75;;;30.24;34.84
30819;BME280;17546;42.674;23.284;2022-08-18T00:36:22;94608.47;;;30.24;34.55
30819;BME280;17546;42.674;23.284;2022-08-18T00:38:47;94605.97;;;30.31;34.54
30819;BME280;17546;42.674;23.284;2022-08-18T00:41:13;94612.84;;;30.39;34.45
30819;BME280;17546;42.674;23.284;2022-08-18T00:43:42;94605.44;;;30.34;34.57
30819;BME280;17546;42.674;23.284;2022-08-18T00:46:12;94609.13;;;30.37;34.74
30819;BME280;17546;42.674;23.284;2022-08-18T00:48:41;94612.69;;;30.23;34.60
30819;BME280;17546;42.674;23.284;2022-08-18T00:51:11;94608.22;;;30.06;34.83
30819;BME280;17546;42.674;23.284;2022-08-18T00:53:42;94612.19;;;29.48;35.67
30819;BME280;17546;42.674;23.284;2022-08-18T00:56:22;94612.06;;;29.20;36.21
30819;BME280;17546;42.674;23.284;2022-08-18T00:58:55;94613.72;;;29.37;35.82
30819;BME280;17546;42.674;23.284;2022-08-18T01:01:23;94617.22;;;29.61;35.79
30819;BME280;17546;42.674;23.284;2022-08-18T01:04:06;94620.75;;;29.74;35.70
30819;BME280;17546;42.674;23.284;2022-08-18T01:06:49;94621.81;;;29.80;35.75
30819;BME280;17546;42.674;23.284;2022-08-18T01:09:17;94613.47;;;29.84;35.54
30819;BME280;17546;42.674;23.284;2022-08-18T01:11:42;94608.94;;;29.93;35.35
30819;BME280;17546;42.674;23.284;2022-08-18T01:14:09;94617.13;;;29.99;35.40
30819;BME280;17546;42.674;23.284;2022-08-18T01:16:36;94612.66;;;29.96;35.51
30819;BME280;17546;42.674;23.284;2022-08-18T01:19:21;94621.44;;;30.00;35.43
30819;BME280;17546;42.674;23.284;2022-08-18T01:22:39;94612.22;;;29.88;35.83
30819;BME280;17546;42.674;23.284;2022-08-18T01:25:15;94617.41;;;29.91;35.78
30819;BME280;17546;42.674;23.284;2022-08-18T01:28:02;94617.38;;;29.77;36.19
30819;BME280;17546;42.674;23.284;2022-08-18T01:30:29;94616.09;;;29.80;36.14
30819;BME280;17546;42.674;23.284;2022-08-18T01:32:55;94613.47;;;29.84;35.83
30819;BME280;17546;42.674;23.284;2022-08-18T01:35:22;94604.34;;;29.74;35.85
30819;BME280;17546;42.674;23.284;2022-08-18T01:37:50;94621.72;;;29.78;35.67
30819;BME280;17546;42.674;23.284;2022-08-18T01:40:17;94619.19;;;29.84;35.63
30819;BME280;17546;42.674;23.284;2022-08-18T01:42:43;94612.22;;;29.88;35.92
30819;BME280;17546;42.674;23.284;2022-08-18T01:45:12;94606.53;;;29.88;35.76
30819;BME280;17546;42.674;23.284;2022-08-18T01:47:38;94603.34;;;29.81;35.91
30819;BME280;17546;42.674;23.284;2022-08-18T01:50:05;94610.97;;;29.91;35.82
30819;BME280;17546;42.674;23.284;2022-08-18T01:52:32;94603.03;;;29.89;35.87
30819;BME280;17546;42.674;23.284;2022-08-18T01:55:00;94613.03;;;29.76;36.19
30819;BME280;17546;42.674;23.284;2022-08-18T01:57:26;94604.91;;;29.84;36.17
30819;BME280;17546;42.674;23.284;2022-08-18T01:59:51;94612.28;;;29.76;36.13
30819;BME280;17546;42.674;23.284;2022-08-18T02:02:21;94598.75;;;29.76;36.10
30819;BME280;17546;42.674;23.284;2022-08-18T02:04:50;94600.16;;;29.75;36.27
30819;BME280;17546;42.674;23.284;2022-08-18T02:07:17;94606.59;;;29.76;36.34
30819;BME280;17546;42.674;23.284;2022-08-18T02:09:43;94609.97;;;29.72;36.58
30819;BME280;17546;42.674;23.284;2022-08-18T02:12:09;94610.06;;;29.74;36.51
30819;BME280;17546;42.674;23.284;2022-08-18T02:14:35;94617.03;;;29.71;36.85
30819;BME280;17546;42.674;23.284;2022-08-18T02:17:02;94609.88;;;29.58;37.00
30819;BME280;17546;42.674;23.284;2022-08-18T02:19:42;94605.69;;;29.59;37.34
30819;BME280;17546;42.674;23.284;2022-08-18T02:22:10;94613.81;;;29.65;36.88
30819;BME280;17546;42.674;23.284;2022-08-18T02:24:37;94615.44;;;29.42;37.09
30819;BME280;17546;42.674;23.284;2022-08-18T02:27:02;94606.59;;;29.50;36.87
30819;BME280;17546;42.674;23.284;2022-08-18T02:29:28;94604.88;;;29.45;37.01
30819;BME280;17546;42.674;23.284;2022-08-18T02:31:54;94604.03;;;29.42;37.00
30819;BME280;17546;42.674;23.284;2022-08-18T02:34:19;94599.81;;;29.43;36.82
30819;BME280;17546;42.674;23.284;2022-08-18T02:36:45;94602.09;;;29.33;36.94
30819;BME280;17546;42.674;23.284;2022-08-18T02:39:10;94605.53;;;29.43;36.89
30819;BME280;17546;42.674;23.284;2022-08-18T02:41:35;94603.78;;;29.38;37.23
30819;BME280;17546;42.674;23.284;2022-08-18T02:44:01;94604.09;;;29.31;37.20
30819;BME280;17546;42.674;23.284;2022-08-18T02:46:27;94608.75;;;29.38;37.26
30819;BME280;17546;42.674;23.284;2022-08-18T02:48:52;94610.22;;;29.39;37.01
30819;BME280;17546;42.674;23.284;2022-08-18T02:51:18;94614.75;;;29.30;37.17
30819;BME280;17546;42.674;23.284;2022-08-18T02:53:45;94609.56;;;29.27;37.37
30819;BME280;17546;42.674;23.284;2022-08-18T02:56:33;94614.00;;;29.30;37.59
30819;BME280;17546;42.674;23.284;2022-08-18T02:59:07;94619.03;;;29.05;37.84
30819;BME280;17546;42.674;23.284;2022-08-18T03:01:36;94611.44;;;28.84;38.32
30819;BME280;17546;42.674;23.284;2022-08-18T03:04:11;94610.13;;;29.11;37.85
30819;BME280;17546;42.674;23.284;2022-08-18T03:06:37;94607.63;;;29.05;38.00
30819;BME280;17546;42.674;23.284;2022-08-18T03:09:05;94602.72;;;28.94;38.63
30819;BME280;17546;42.674;23.284;2022-08-18T03:11:31;94612.59;;;29.05;38.03
30819;BME280;17546;42.674;23.284;2022-08-18T03:13:57;94613.84;;;29.02;37.96
30819;BME280;17546;42.674;23.284;2022-08-18T03:16:23;94617.31;;;29.00;37.97
30819;BME280;17546;42.674;23.284;2022-08-18T03:18:50;94616.19;;;29.05;38.42
30819;BME280;17546;42.674;23.284;2022-08-18T03:21:22;94621.03;;;29.03;38.30
30819;BME280;17546;42.674;23.284;2022-08-18T03:23:49;94617.56;;;29.04;38.38
30819;BME280;17546;42.674;23.284;2022-08-18T03:26:16;94626.50;;;28.99;38.57
30819;BME280;17546;42.674;23.284;2022-08-18T03:28:44;94618.09;;;28.89;38.78
30819;BME280;17546;42.674;23.284;2022-08-18T03:31:11;94622.31;;;28.88;38.97
30819;BME280;17546;42.674;23.284;2022-08-18T03:33:39;94623.19;;;28.79;39.02
30819;BME280;17546;42.674;23.284;2022-08-18T03:36:07;94620.84;;;28.87;38.69
30819;BME280;17546;42.674;23.284;2022-08-18T03:38:34;94624.81;;;28.82;38.72
30819;BME280;17546;42.674;23.284;2022-08-18T03:41:00;94626.28;;;28.83;38.98
30819;BME280;17546;42.674;23.284;2022-08-18T03:43:25;94617.13;;;28.84;39.07
30819;BME280;17546;42.674;23.284;2022-08-18T03:45:52;94615.00;;;28.85;38.79
30819;BME280;17546;42.674;23.284;2022-08-18T03:48:19;94622.22;;;28.86;39.03
30819;BME280;17546;42.674;23.284;2022-08-18T03:50:46;94622.31;;;28.88;39.29
30819;BME280;17546;42.674;23.284;2022-08-18T03:53:12;94615.63;;;28.83;39.21
30819;BME280;17546;42.674;23.284;2022-08-18T03:55:41;94622.31;;;28.88;39.23
30819;BME280;17546;42.674;23.284;2022-08-18T03:58:06;94637.69;;;28.83;39.32
30819;BME280;17546;42.674;23.284;2022-08-18T04:00:36;94633.25;;;28.68;39.19
30819;BME280;17546;42.674;23.284;2022-08-18T04:03:02;94634.22;;;28.73;39.61
30819;BME280;17546;42.674;23.284;2022-08-18T04:05:28;94634.03;;;28.69;38.82
30819;BME280;17546;42.674;23.284;2022-08-18T04:07:54;94630.78;;;28.74;39.06
30819;BME280;17546;42.674;23.284;2022-08-18T04:10:22;94637.31;;;28.77;39.77
30819;BME280;17546;42.674;23.284;2022-08-18T04:12:47;94645.38;;;28.80;39.22
30819;BME280;17546;42.674;23.284;2022-08-18T04:15:13;94642.69;;;28.71;39.75
30819;BME280;17546;42.674;23.284;2022-08-18T04:17:38;94646.63;;;28.77;39.71
30819;BME280;17546;42.674;23.284;2022-08-18T04:20:04;94651.81;;;28.81;39.46
30819;BME280;17546;42.674;23.284;2022-08-18T04:22:29;94656.41;;;28.86;39.53
30819;BME280;17546;42.674;23.284;2022-08-18T04:24:58;94656.53;;;28.76;39.72
30819;BME280;17546;42.674;23.284;2022-08-18T04:27:26;94659.75;;;28.82;39.19
30819;BME280;17546;42.674;23.284;2022-08-18T04:29:52;94661.38;;;28.74;39.34
30819;BME280;17546;42.674;23.284;2022-08-18T04:32:21;94665.59;;;28.73;39.25
30819;BME280;17546;42.674;23.284;2022-08-18T04:34:46;94661.22;;;28.83;39.25
30819;BME280;17546;42.674;23.284;2022-08-18T04:37:12;94667.31;;;28.78;39.44
30819;BME280;17546;42.674;23.284;2022-08-18T04:39:39;94668.06;;;28.78;39.37
30819;BME280;17546;42.674;23.284;2022-08-18T04:42:05;94667.31;;;28.78;39.32
30819;BME280;17546;42.674;23.284;2022-08-18T04:44:30;94670.28;;;28.80;39.70
30819;BME280;17546;42.674;23.284;2022-08-18T04:46:59;94664.47;;;28.78;39.67
30819;BME280;17546;42.674;23.284;2022-08-18T04:49:26;94664.09;;;28.72;39.39
30819;BME280;17546;42.674;23.284;2022-08-18T04:51:53;94670.06;;;28.76;39.60
30819;BME280;17546;42.674;23.284;2022-08-18T04:54:39;94667.81;;;28.74;39.14
30819;BME280;17546;42.674;23.284;2022-08-18T04:57:16;94672.91;;;28.76;39.59
30819;BME280;17546;42.674;23.284;2022-08-18T04:59:44;94674.91;;;28.73;39.86
30819;BME280;17546;42.674;23.284;2022-08-18T05:02:36;94666.44;;;28.87;39.56
30819;BME280;17546;42.674;23.284;2022-08-18T05:05:03;94665.28;;;29.04;39.07
30819;BME280;17546;42.674;23.284;2022-08-18T05:07:29;94671.84;;;29.18;38.90
30819;BME280;17546;42.674;23.284;2022-08-18T05:09:54;94676.31;;;29.10;38.76
30819;BME280;17546;42.674;23.284;2022-08-18T05:12:20;94675.03;;;29.24;38.41
30819;BME280;17546;42.674;23.284;2022-08-18T05:14:46;94658.66;;;29.25;38.56
30819;BME280;17546;42.674;23.284;2022-08-18T05:17:15;94672.56;;;29.19;38.17
30819;BME280;17546;42.674;23.284;2022-08-18T05:19:40;94669.09;;;29.20;38.38
30819;BME280;17546;42.674;23.284;2022-08-18T05:22:09;94676.25;;;29.33;38.00
30819;BME280;17546;42.674;23.284;2022-08-18T05:24:35;94684.25;;;29.49;37.84
30819;BME280;17546;42.674;23.284;2022-08-18T05:27:01;94678.00;;;29.52;37.83
30819;BME280;17546;42.674;23.284;2022-08-18T05:29:29;94681.88;;;29.57;37.68
30819;BME280;17546;42.674;23.284;2022-08-18T05:32:02;94689.50;;;29.66;37.87
30819;BME280;17546;42.674;23.284;2022-08-18T05:34:31;94682.41;;;29.67;37.74
30819;BME280;17546;42.674;23.284;2022-08-18T05:37:08;94683.81;;;29.66;37.70
30819;BME280;17546;42.674;23.284;2022-08-18T05:42:19;94688.13;;;29.67;38.17
30819;BME280;17546;42.674;23.284;2022-08-18T05:44:48;94689.16;;;29.60;37.84
30819;BME280;17546;42.674;23.284;2022-08-18T05:47:29;94688.94;;;29.56;37.89
30819;BME280;17546;42.674;23.284;2022-08-18T05:50:02;94681.34;;;29.60;37.80
30819;BME280;17546;42.674;23.284;2022-08-18T05:55:21;94683.75;;;29.15;38.72
30819;BME280;17546;42.674;23.284;2022-08-18T05:58:19;94697.38;;;29.16;38.82
30819;BME280;17546;42.674;23.284;2022-08-18T06:00:55;94687.41;;;29.29;38.57
30819;BME280;17546;42.674;23.284;2022-08-18T06:03:26;94689.53;;;28.56;40.11
30819;BME280;17546;42.674;23.284;2022-08-18T06:06:03;94682.34;;;28.67;39.46
30819;BME280;17546;42.674;23.284;2022-08-18T06:09:12;94689.13;;;28.61;39.57
30819;BME280;17546;42.674;23.284;2022-08-18T06:11:39;94686.84;;;29.07;39.13
30819;BME280;17546;42.674;23.284;2022-08-18T06:14:04;94684.03;;;28.95;38.87
30819;BME280;17546;42.674;23.284;2022-08-18T06:17:02;94686.47;;;29.01;38.84
30819;BME280;17546;42.674;23.284;2022-08-18T06:22:22;94680.94;;;29.40;38.28
30819;BME280;17546;42.674;23.284;2022-08-18T06:25:13;94690.31;;;29.55;38.12
30819;BME280;17546;42.674;23.284;2022-08-18T06:30:21;94688.97;;;29.81;37.69
30819;BME280;17546;42.674;23.284;2022-08-18T06:35:49;94695.28;;;30.05;37.25
30819;BME280;17546;42.674;23.284;2022-08-18T06:41:32;94696.25;;;30.24;36.84
30819;BME280;17546;42.674;23.284;2022-08-18T06:44:02;94692.69;;;30.23;36.92
30819;BME280;17546;42.674;23.284;2022-08-18T06:46:38;94689.88;;;30.37;37.02
30819;BME280;17546;42.674;23.284;2022-08-18T06:51:51;94687.34;;;30.43;36.86
30819;BME280;17546;42.674;23.284;2022-08-18T06:56:50;94677.81;;;30.66;36.46
30819;BME280;17546;42.674;23.284;2022-08-18T07:01:46;94675.72;;;30.67;36.60
30819;BME280;17546;42.674;23.284;2022-08-18T07:07:33;94663.34;;;30.90;36.52
30819;BME280;17546;42.674;23.284;2022-08-18T07:10:04;94673.38;;;31.05;36.47
30819;BME280;17546;42.674;23.284;2022-08-18T07:12:30;94650.09;;;30.97;36.22
30819;BME280;17546;42.674;23.284;2022-08-18T07:15:01;94661.41;;;30.81;36.60
30819;BME280;17546;42.674;23.284;2022-08-18T07:17:33;94660.44;;;31.18;36.29
30819;BME280;17546;42.674;23.284;2022-08-18T07:20:19;94651.81;;;31.61;35.63
30819;BME280;17546;42.674;23.284;2022-08-18T07:22:56;94645.34;;;31.90;35.29
30819;BME280;17546;42.674;23.284;2022-08-18T07:25:27;94645.16;;;31.86;34.89
30819;BME280;17546;42.674;23.284;2022-08-18T07:27:54;94648.81;;;32.35;34.08
30819;BME280;17546;42.674;23.284;2022-08-18T07:35:35;94657.34;;;33.32;32.64
30819;BME280;17546;42.674;23.284;2022-08-18T07:38:30;94659.44;;;33.65;32.03
30819;BME280;17546;42.674;23.284;2022-08-18T07:41:02;94652.72;;;33.07;32.42
30819;BME280;17546;42.674;23.284;2022-08-18T07:43:52;94653.91;;;33.53;32.08
30819;BME280;17546;42.674;23.284;2022-08-18T07:47:04;94657.53;;;33.90;31.40
30819;BME280;17546;42.674;23.284;2022-08-18T07:49:26;94651.31;;;33.95;31.03
30819;BME280;17546;42.674;23.284;2022-08-18T07:52:07;94657.44;;;34.44;30.84
30819;BME280;17546;42.674;23.284;2022-08-18T07:55:13;94654.44;;;34.40;30.46
30819;BME280;17546;42.674;23.284;2022-08-18T07:57:59;94660.72;;;34.94;30.29
30819;BME280;17546;42.674;23.284;2022-08-18T08:00:41;94658.44;;;35.10;30.51
30819;BME280;17546;42.674;23.284;2022-08-18T08:03:40;94662.41;;;35.43;28.88
30819;BME280;17546;42.674;23.284;2022-08-18T08:06:32;94669.34;;;35.78;29.03
30819;BME280;17546;42.674;23.284;2022-08-18T08:14:42;94667.63;;;36.15;27.16
30819;BME280;17546;42.674;23.284;2022-08-18T08:17:30;94660.69;;;35.78;27.53
30819;BME280;17546;42.674;23.284;2022-08-18T08:20:25;94655.53;;;35.96;27.80
30819;BME280;17546;42.674;23.284;2022-08-18T08:26:53;94651.69;;;37.12;27.33
30819;BME280;17546;42.674;23.284;2022-08-18T08:32:10;94652.53;;;37.17;25.94
30819;BME280;17546;42.674;23.284;2022-08-18T08:34:56;94649.69;;;37.47;24.88
30819;BME280;17546;42.674;23.284;2022-08-18T08:37:32;94638.13;;;37.47;24.88
30819;BME280;17546;42.674;23.284;2022-08-18T08:40:05;94642.50;;;37.20;24.89
30819;BME280;17546;42.674;23.284;2022-08-18T08:42:58;94639.56;;;36.66;24.95
30819;BME280;17546;42.674;23.284;2022-08-18T08:45:29;94637.72;;;36.76;24.93
30819;BME280;17546;42.674;23.284;2022-08-18T08:47:59;94646.31;;;37.00;25.04
30819;BME280;17546;42.674;23.284;2022-08-18T08:50:28;94641.03;;;37.47;25.13
30819;BME280;17546;42.674;23.284;2022-08-18T08:53:34;94639.34;;;36.84;24.67
30819;BME280;17546;42.674;23.284;2022-08-18T08:56:07;94636.75;;;37.50;24.61
30819;BME280;17546;42.674;23.284;2022-08-18T08:58:38;94639.31;;;37.36;24.33
30819;BME280;17546;42.674;23.284;2022-08-18T09:01:12;94637.09;;;36.80;23.94
30819;BME280;17546;42.674;23.284;2022-08-18T09:03:56;94637.19;;;37.10;23.96
30819;BME280;17546;42.674;23.284;2022-08-18T09:07:50;94642.16;;;37.94;23.09
30819;BME280;17546;42.674;23.284;2022-08-18T09:12:43;94633.59;;;37.66;23.62
30819;BME280;17546;42.674;23.284;2022-08-18T09:23:33;94620.06;;;37.75;23.45
30819;BME280;17546;42.674;23.284;2022-08-18T09:28:58;94626.06;;;37.85;22.78
30819;BME280;17546;42.674;23.284;2022-08-18T09:31:27;94616.94;;;37.36;22.89
30819;BME280;17546;42.674;23.284;2022-08-18T09:57:20;94592.81;;;39.25;21.44
30819;BME280;17546;42.674;23.284;2022-08-18T10:10:30;94586.31;;;39.70;21.10
30819;BME280;17546;42.674;23.284;2022-08-18T10:16:20;94579.44;;;40.50;20.33
30819;BME280;17546;42.674;23.284;2022-08-18T10:18:59;94578.13;;;40.04;20.95
30819;BME280;17546;42.674;23.284;2022-08-18T10:26:58;94564.28;;;39.08;21.22
30819;BME280;17546;42.674;23.284;2022-08-18T10:34:44;94574.38;;;39.96;21.42
30819;BME280;17546;42.674;23.284;2022-08-18T10:37:23;94557.63;;;39.90;20.61
30819;BME280;17546;42.674;23.284;2022-08-18T10:45:29;94558.00;;;39.68;20.70
30819;BME280;17546;42.674;23.284;2022-08-18T10:50:28;94557.06;;;39.53;20.50
30819;BME280;17546;42.674;23.284;2022-08-18T10:56:00;94551.94;;;39.96;20.33
30819;BME280;17546;42.674;23.284;2022-08-18T11:07:04;94534.88;;;39.70;19.98
30819;BME280;17546;42.674;23.284;2022-08-18T11:09:31;94532.03;;;39.28;19.95
30819;BME280;17546;42.674;23.284;2022-08-18T11:11:59;94520.84;;;39.08;20.04
30819;BME280;17546;42.674;23.284;2022-08-18T11:19:50;94538.28;;;39.56;20.01
30819;BME280;17546;42.674;23.284;2022-08-18T11:22:29;94535.50;;;39.62;19.17
30819;BME280;17546;42.674;23.284;2022-08-18T11:24:56;94535.78;;;39.83;19.85
30819;BME280;17546;42.674;23.284;2022-08-18T11:27:24;94537.84;;;39.76;19.65
30819;BME280;17546;42.674;23.284;2022-08-18T11:29:51;94531.50;;;39.88;19.33
30819;BME280;17546;42.674;23.284;2022-08-18T11:32:22;94531.34;;;39.76;19.41
30819;BME280;17546;42.674;23.284;2022-08-18T11:51:29;94523.56;;;39.91;19.47
30819;BME280;17546;42.674;23.284;2022-08-18T12:09:23;94488.34;;;39.60;19.15
30819;BME280;17546;42.674;23.284;2022-08-18T12:11:57;94494.69;;;39.48;19.21
30819;BME280;17546;42.674;23.284;2022-08-18T12:14:28;94495.47;;;40.03;19.38
30819;BME280;17546;42.674;23.284;2022-08-18T12:16:54;94486.47;;;39.81;19.38
30819;BME280;17546;42.674;23.284;2022-08-18T12:19:21;94491.69;;;39.40;20.05
30819;BME280;17546;42.674;23.284;2022-08-18T12:21:53;94492.25;;;39.81;20.37
30819;BME280;17546;42.674;23.284;2022-08-18T12:24:25;94481.56;;;39.41;20.04
30819;BME280;17546;42.674;23.284;2022-08-18T12:26:51;94486.38;;;39.75;19.57
30819;BME280;17546;42.674;23.284;2022-08-18T12:29:17;94482.31;;;39.94;19.71
30819;BME280;17546;42.674;23.284;2022-08-18T12:31:44;94476.38;;;40.43;19.86
30819;BME280;17546;42.674;23.284;2022-08-18T12:34:10;94474.22;;;40.43;19.31
30819;BME280;17546;42.674;23.284;2022-08-18T12:36:36;94472.72;;;40.40;19.37
30819;BME280;17546;42.674;23.284;2022-08-18T12:39:02;94460.84;;;40.16;19.77
30819;BME280;17546;42.674;23.284;2022-08-18T12:41:28;94482.28;;;40.51;19.30
30819;BME280;17546;42.674;23.284;2022-08-18T12:43:53;94474.94;;;40.42;19.29
30819;BME280;17546;42.674;23.284;2022-08-18T12:46:19;94480.84;;;40.54;19.67
30819;BME280;17546;42.674;23.284;2022-08-18T12:48:45;94485.84;;;40.47;19.87
30819;BME280;17546;42.674;23.284;2022-08-18T12:51:10;94494.38;;;40.29;18.77
30819;BME280;17546;42.674;23.284;2022-08-18T12:53:38;94488.34;;;40.15;19.19
30819;BME280;17546;42.674;23.284;2022-08-18T12:56:11;94481.06;;;39.57;19.63
30819;BME280;17546;42.674;23.284;2022-08-18T12:58:40;94480.75;;;39.85;19.38
30819;BME280;17546;42.674;23.284;2022-08-18T13:01:05;94474.22;;;39.84;19.84
30819;BME280;17546;42.674;23.284;2022-08-18T13:03:31;94479.59;;;40.11;19.32
30819;BME280;17546;42.674;23.284;2022-08-18T13:05:56;94476.97;;;39.74;18.91
30819;BME280;17546;42.674;23.284;2022-08-18T13:08:22;94468.69;;;39.52;19.31
30819;BME280;17546;42.674;23.284;2022-08-18T13:10:47;94465.69;;;39.99;19.41
30819;BME280;17546;42.674;23.284;2022-08-18T13:13:15;94457.63;;;39.38;19.73
30819;BME280;17546;42.674;23.284;2022-08-18T13:15:41;94460.16;;;38.73;20.00
30819;BME280;17546;42.674;23.284;2022-08-18T13:18:08;94457.81;;;39.04;19.76
30819;BME280;17546;42.674;23.284;2022-08-18T13:20:33;94464.94;;;39.43;19.27
30819;BME280;17546;42.674;23.284;2022-08-18T13:23:00;94461.91;;;38.91;19.93
30819;BME280;17546;42.674;23.284;2022-08-18T13:25:26;94448.44;;;38.65;20.00
30819;BME280;17546;42.674;23.284;2022-08-18T13:27:51;94453.97;;;39.36;19.47
30819;BME280;17546;42.674;23.284;2022-08-18T13:30:17;94452.34;;;39.26;19.60
30819;BME280;17546;42.674;23.284;2022-08-18T13:32:42;94445.69;;;39.64;19.11
30819;BME280;17546;42.674;23.284;2022-08-18T13:35:10;94443.25;;;39.00;19.45
30819;BME280;17546;42.674;23.284;2022-08-18T13:37:35;94440.91;;;39.35;19.80
30819;BME280;17546;42.674;23.284;2022-08-18T13:40:02;94440.66;;;39.18;20.02
30819;BME280;17546;42.674;23.284;2022-08-18T13:42:28;94446.66;;;39.33;19.67
30819;BME280;17546;42.674;23.284;2022-08-18T13:44:57;94442.78;;;38.71;19.99
30819;BME280;17546;42.674;23.284;2022-08-18T13:47:24;94432.63;;;39.63;19.41
30819;BME280;17546;42.674;23.284;2022-08-18T13:49:53;94442.81;;;39.18;19.62
30819;BME280;17546;42.674;23.284;2022-08-18T13:52:19;94437.81;;;39.22;19.28
30819;BME280;17546;42.674;23.284;2022-08-18T13:54:44;94445.44;;;39.46;19.18
30819;BME280;17546;42.674;23.284;2022-08-18T13:57:10;94436.13;;;39.54;19.22
30819;BME280;17546;42.674;23.284;2022-08-18T13:59:36;94436.38;;;39.72;19.26
30819;BME280;17546;42.674;23.284;2022-08-18T14:02:05;94423.38;;;39.77;18.71
30819;BME280;17546;42.674;23.284;2022-08-18T14:04:32;94427.63;;;39.68;18.81
30819;BME280;17546;42.674;23.284;2022-08-18T14:06:57;94434.88;;;39.69;19.48
30819;BME280;17546;42.674;23.284;2022-08-18T14:09:26;94431.97;;;39.67;19.21
30819;BME280;17546;42.674;23.284;2022-08-18T14:11:53;94433.03;;;39.94;19.61
30819;BME280;17546;42.674;23.284;2022-08-18T14:14:18;94425.72;;;39.87;18.90
30819;BME280;17546;42.674;23.284;2022-08-18T14:16:45;94422.88;;;39.93;19.14
30819;BME280;17546;42.674;23.284;2022-08-18T14:19:11;94415.13;;;39.55;19.41
30819;BME280;17546;42.674;23.284;2022-08-18T14:22:03;94420.09;;;39.49;19.89
30819;BME280;17546;42.674;23.284;2022-08-18T14:24:47;94423.69;;;39.45;19.58
30819;BME280;17546;42.674;23.284;2022-08-18T14:27:33;94426.09;;;39.12;19.33
30819;BME280;17546;42.674;23.284;2022-08-18T14:30:03;94417.47;;;39.16;19.09
30819;BME280;17546;42.674;23.284;2022-08-18T14:32:30;94424.75;;;39.19;19.43
30819;BME280;17546;42.674;23.284;2022-08-18T14:34:57;94416.72;;;39.16;19.21
30819;BME280;17546;42.674;23.284;2022-08-18T14:37:24;94411.75;;;39.20;19.73
30819;BME280;17546;42.674;23.284;2022-08-18T14:39:50;94411.97;;;38.90;20.36
30819;BME280;17546;42.674;23.284;2022-08-18T14:42:16;94412.22;;;39.04;20.01
30819;BME280;17546;42.674;23.284;2022-08-18T14:44:44;94421.47;;;39.41;19.60
30819;BME280;17546;42.674;23.284;2022-08-18T14:47:09;94413.63;;;39.50;19.48
30819;BME280;17546;42.674;23.284;2022-08-18T14:49:35;94408.09;;;39.20;19.69
30819;BME280;17546;42.674;23.284;2022-08-18T14:52:01;94416.25;;;39.32;19.65
30819;BME280;17546;42.674;23.284;2022-08-18T14:54:28;94417.34;;;39.08;19.78
30819;BME280;17546;42.674;23.284;2022-08-18T14:56:54;94421.25;;;38.82;19.96
30819;BME280;17546;42.674;23.284;2022-08-18T14:59:19;94414.81;;;39.33;19.51
30819;BME280;17546;42.674;23.284;2022-08-18T15:01:47;94420.66;;;39.37;19.43
30819;BME280;17546;42.674;23.284;2022-08-18T15:04:12;94423.25;;;39.16;20.02
30819;BME280;17546;42.674;23.284;2022-08-18T15:06:39;94418.28;;;38.76;20.27
30819;BME280;17546;42.674;23.284;2022-08-18T15:09:05;94420.88;;;38.60;20.10
30819;BME280;17546;42.674;23.284;2022-08-18T15:11:30;94417.22;;;38.57;20.27
30819;BME280;17546;42.674;23.284;2022-08-18T15:13:57;94413.72;;;37.86;20.84
30819;BME280;17546;42.674;23.284;2022-08-18T15:16:24;94422.31;;;38.20;20.95
30819;BME280;17546;42.674;23.284;2022-08-18T15:18:50;94431.31;;;38.00;21.19
30819;BME280;17546;42.674;23.284;2022-08-18T15:21:15;94426.44;;;38.48;20.93
30819;BME280;17546;42.674;23.284;2022-08-18T15:23:59;94412.13;;;38.56;20.27
30819;BME280;17546;42.674;23.284;2022-08-18T15:26:43;94427.47;;;38.64;20.55
30819;BME280;17546;42.674;23.284;2022-08-18T15:29:10;94429.06;;;38.33;20.98
30819;BME280;17546;42.674;23.284;2022-08-18T15:31:37;94428.03;;;38.55;20.71
30819;BME280;17546;42.674;23.284;2022-08-18T15:34:03;94432.38;;;37.81;21.42
30819;BME280;17546;42.674;23.284;2022-08-18T15:36:29;94426.81;;;37.91;21.14
30819;BME280;17546;42.674;23.284;2022-08-18T15:38:59;94426.50;;;37.77;21.43
30819;BME280;17546;42.674;23.284;2022-08-18T15:43:53;94420.81;;;37.81;21.80
30819;BME280;17546;42.674;23.284;2022-08-18T15:46:21;94422.25;;;37.80;21.69
30819;BME280;17546;42.674;23.284;2022-08-18T15:48:47;94420.25;;;38.25;21.25
30819;BME280;17546;42.674;23.284;2022-08-18T15:51:12;94421.94;;;38.38;21.60
30819;BME280;17546;42.674;23.284;2022-08-18T15:53:38;94421.53;;;38.54;21.43
30819;BME280;17546;42.674;23.284;2022-08-18T15:56:04;94422.88;;;38.49;21.49